Time;durP1;ratioP1;P1;durP2;ratioP2;P2;SDS_P1;SDS_P2;PMS_P1;PMS_P2;Temp;Humidity;BMP_temperature;BMP_pressure;BME280_temperature;BME280_humidity;BME280_pressure;Samples;Min_cycle;Max_cycle;Signal;HPM_P1;HPM_P2
2021/12/02 00:01:27;;;;;;;14.00;7.47;;;-4.60;99.90;;;;;;4822770;29;20489;-84
2021/12/02 00:03:55;;;;;;;17.80;8.70;;;-4.70;99.90;;;;;;4821316;29;20919;-84
2021/12/02 00:06:23;;;;;;;16.05;8.18;;;-4.70;99.90;;;;;;4836487;29;20690;-84
2021/12/02 00:08:52;;;;;;;17.05;8.50;;;-4.70;99.90;;;;;;4806411;29;20404;-84
2021/12/02 00:11:20;;;;;;;14.32;7.30;;;-4.60;99.90;;;;;;4836434;29;20449;-84
2021/12/02 00:16:51;;;;;;;18.70;9.35;;;-4.70;99.90;;;;;;4824946;29;20853;-84
2021/12/02 00:22:06;;;;;;;20.30;9.65;;;-4.70;99.90;;;;;;4822676;29;20905;-85
2021/12/02 00:24:35;;;;;;;19.95;9.82;;;-4.60;99.90;;;;;;4822668;29;20400;-84
2021/12/02 00:27:10;;;;;;;18.80;9.57;;;-4.60;99.90;;;;;;4821458;29;20438;-84
2021/12/02 00:29:41;;;;;;;17.90;8.80;;;-4.70;99.90;;;;;;4821368;29;20469;-85
2021/12/02 00:32:09;;;;;;;16.45;8.85;;;-4.80;99.90;;;;;;4806199;29;20411;-83
2021/12/02 00:34:43;;;;;;;17.63;8.63;;;-4.80;99.90;;;;;;4821246;29;20912;-85
2021/12/02 00:37:11;;;;;;;18.50;9.50;;;-4.90;99.90;;;;;;4821293;29;20416;-84
2021/12/02 00:39:39;;;;;;;19.20;9.93;;;-4.90;99.90;;;;;;4822477;29;20457;-84
2021/12/02 00:42:08;;;;;;;15.50;8.63;;;-4.80;99.90;;;;;;4821272;29;21082;-84
2021/12/02 00:44:39;;;;;;;16.77;9.05;;;-4.80;99.90;;;;;;4821193;29;20445;-84
2021/12/02 00:47:08;;;;;;;17.10;9.05;;;-4.90;99.90;;;;;;4836749;29;20412;-83
2021/12/02 00:49:35;;;;;;;17.40;9.05;;;-4.80;99.90;;;;;;4839993;29;20503;-83
2021/12/02 00:52:04;;;;;;;17.05;8.55;;;-4.90;99.90;;;;;;4809507;29;20408;-84
2021/12/02 00:54:31;;;;;;;18.20;9.40;;;-4.90;99.90;;;;;;4824410;29;20841;-84
2021/12/02 00:57:02;;;;;;;17.38;9.13;;;-5.00;99.90;;;;;;4824429;29;20424;-84
2021/12/02 00:59:30;;;;;;;19.80;9.15;;;-5.00;99.90;;;;;;4839545;29;20418;-83
2021/12/02 01:01:58;;;;;;;20.17;9.95;;;-4.80;99.90;;;;;;4839645;29;20448;-84
2021/12/02 01:04:27;;;;;;;19.10;9.27;;;-4.80;99.90;;;;;;4824317;29;20426;-84
2021/12/02 01:06:54;;;;;;;17.90;9.27;;;-4.80;99.90;;;;;;4824410;29;20455;-84
2021/12/02 01:09:22;;;;;;;17.83;8.82;;;-4.80;99.90;;;;;;4825324;29;20416;-84
2021/12/02 01:11:50;;;;;;;16.35;7.63;;;-5.00;99.90;;;;;;4854595;29;20419;-84
2021/12/02 01:14:17;;;;;;;17.60;9.23;;;-5.10;99.90;;;;;;4843657;29;20534;-84
2021/12/02 01:16:45;;;;;;;17.67;8.85;;;-4.90;99.90;;;;;;4843531;29;20428;-84
2021/12/02 01:19:13;;;;;;;15.43;8.73;;;-5.00;99.90;;;;;;4842252;29;20412;-84
2021/12/02 01:21:43;;;;;;;18.88;9.27;;;-5.00;99.90;;;;;;4827006;29;20406;-84
2021/12/02 01:24:13;;;;;;;19.73;9.35;;;-5.00;99.90;;;;;;4857830;29;20493;-83
2021/12/02 01:26:46;;;;;;;18.10;8.60;;;-5.00;99.90;;;;;;4842364;29;20462;-84
2021/12/02 01:29:15;;;;;;;15.93;8.37;;;-5.10;99.90;;;;;;4842345;29;20996;-84
2021/12/02 01:31:43;;;;;;;16.60;8.37;;;-5.00;99.90;;;;;;4827053;29;20450;-84
2021/12/02 01:34:11;;;;;;;17.02;9.60;;;-5.10;99.90;;;;;;4841902;29;20414;-84
2021/12/02 01:36:41;;;;;;;17.45;8.60;;;-5.10;99.90;;;;;;4842151;29;20418;-84
2021/12/02 01:39:09;;;;;;;17.17;9.20;;;-5.00;99.90;;;;;;4843196;29;20442;-84
2021/12/02 01:41:43;;;;;;;17.15;8.45;;;-4.90;99.90;;;;;;4842063;29;20509;-84
2021/12/02 01:44:13;;;;;;;16.83;8.38;;;-4.90;99.90;;;;;;4841688;29;20789;-84
2021/12/02 01:46:42;;;;;;;19.17;10.02;;;-5.00;99.90;;;;;;4843145;29;20511;-84
2021/12/02 01:49:12;;;;;;;16.15;8.60;;;-4.90;99.90;;;;;;4842909;29;20437;-83
2021/12/02 01:51:51;;;;;;;17.88;9.27;;;-4.90;99.90;;;;;;4843011;29;20463;-83
2021/12/02 01:54:21;;;;;;;18.40;9.40;;;-5.00;99.90;;;;;;4841806;29;20501;-84
2021/12/02 01:56:53;;;;;;;15.73;7.88;;;-4.90;99.90;;;;;;4841556;29;20841;-84
2021/12/02 01:59:28;;;;;;;18.25;9.05;;;-5.00;99.90;;;;;;4825405;29;20419;-84
2021/12/02 02:01:57;;;;;;;18.33;9.27;;;-5.00;99.90;;;;;;4842111;29;20835;-84
2021/12/02 02:04:25;;;;;;;15.82;8.30;;;-4.90;99.90;;;;;;4841613;29;20406;-84
2021/12/02 02:06:59;;;;;;;15.88;8.25;;;-5.00;99.90;;;;;;4841573;29;20497;-83
2021/12/02 02:09:29;;;;;;;15.60;8.57;;;-5.00;99.90;;;;;;4841420;29;20410;-84
2021/12/02 02:12:00;;;;;;;13.75;6.63;;;-5.10;99.90;;;;;;4841476;29;20482;-84
2021/12/02 02:14:28;;;;;;;15.90;8.13;;;-5.00;99.90;;;;;;4826007;29;20602;-84
2021/12/02 02:16:59;;;;;;;13.90;7.22;;;-5.00;99.90;;;;;;4842489;29;20430;-84
2021/12/02 02:19:30;;;;;;;17.23;8.27;;;-5.00;99.90;;;;;;4856766;29;20412;-84
2021/12/02 02:21:58;;;;;;;17.40;8.20;;;-5.00;99.90;;;;;;4841442;29;20437;-84
2021/12/02 02:24:27;;;;;;;12.13;6.40;;;-5.00;99.90;;;;;;4841237;29;20434;-84
2021/12/02 02:26:54;;;;;;;11.80;6.50;;;-5.00;99.90;;;;;;4841038;29;20818;-84
2021/12/02 02:29:22;;;;;;;13.98;7.00;;;-5.00;99.90;;;;;;4825961;29;20766;-84
2021/12/02 02:31:50;;;;;;;13.00;6.50;;;-5.00;99.90;;;;;;4842292;29;20414;-84
2021/12/02 02:34:22;;;;;;;13.52;6.50;;;-5.00;99.90;;;;;;4841046;29;20409;-84
2021/12/02 02:36:59;;;;;;;12.60;6.47;;;-4.90;99.90;;;;;;4841241;29;20449;-84
2021/12/02 02:39:29;;;;;;;12.23;6.37;;;-4.80;99.90;;;;;;4841012;29;20418;-84
2021/12/02 02:42:02;;;;;;;11.50;5.80;;;-4.80;99.90;;;;;;4826033;29;20501;-83
2021/12/02 02:44:32;;;;;;;13.85;6.43;;;-4.90;99.90;;;;;;4841076;29;20467;-84
2021/12/02 02:47:00;;;;;;;11.63;5.60;;;-4.80;99.90;;;;;;4840730;29;20517;-85
2021/12/02 02:49:27;;;;;;;12.98;5.78;;;-5.00;99.90;;;;;;4825893;29;20410;-84
2021/12/02 02:51:55;;;;;;;12.15;5.80;;;-5.00;99.90;;;;;;4825771;29;20437;-84
2021/12/02 02:54:23;;;;;;;12.25;6.38;;;-4.80;99.90;;;;;;4825577;29;20414;-85
2021/12/02 02:57:00;;;;;;;12.73;6.15;;;-4.80;99.90;;;;;;4840669;29;20454;-84
2021/12/02 02:59:40;;;;;;;12.65;6.70;;;-4.80;99.90;;;;;;4840962;29;20497;-85
2021/12/02 03:02:21;;;;;;;12.48;6.15;;;-4.80;99.90;;;;;;4840916;29;20770;-84
2021/12/02 03:05:01;;;;;;;11.80;5.93;;;-4.80;99.90;;;;;;4840628;29;20426;-84
2021/12/02 03:07:37;;;;;;;12.40;6.10;;;-4.80;99.90;;;;;;4840582;29;20850;-84
2021/12/02 03:10:19;;;;;;;10.52;5.55;;;-4.80;99.90;;;;;;4840190;29;20412;-84
2021/12/02 03:12:56;;;;;;;14.77;6.70;;;-4.80;99.90;;;;;;4825440;29;20418;-83
2021/12/02 03:18:12;;;;;;;14.27;6.97;;;-4.80;99.90;;;;;;4841568;29;20497;-84
2021/12/02 03:20:39;;;;;;;13.73;6.95;;;-4.80;99.90;;;;;;4855588;29;20497;-84
2021/12/02 03:23:07;;;;;;;13.25;7.38;;;-4.80;99.90;;;;;;4840290;29;20966;-85
2021/12/02 03:25:35;;;;;;;11.88;5.93;;;-4.70;99.90;;;;;;4841483;29;20517;-85
2021/12/02 03:28:03;;;;;;;11.55;5.97;;;-4.80;99.90;;;;;;4840319;29;20513;-85
2021/12/02 03:30:31;;;;;;;14.55;6.35;;;-4.80;99.90;;;;;;4840221;29;20434;-84
2021/12/02 03:32:59;;;;;;;12.30;6.40;;;-4.80;99.90;;;;;;4841240;29;20414;-84
2021/12/02 03:35:26;;;;;;;14.77;6.93;;;-4.80;99.90;;;;;;4841139;29;20901;-84
2021/12/02 03:37:54;;;;;;;12.65;6.60;;;-4.80;99.90;;;;;;4840162;29;20419;-84
2021/12/02 03:40:21;;;;;;;12.45;6.50;;;-4.70;99.90;;;;;;4836818;29;20913;-84
2021/12/02 03:42:52;;;;;;;13.90;6.95;;;-4.60;99.90;;;;;;4838618;29;20970;-84
2021/12/02 03:45:37;;;;;;;12.68;5.57;;;-4.60;99.90;;;;;;4841134;29;20423;-84
2021/12/02 03:48:05;;;;;;;11.60;5.40;;;-4.70;99.90;;;;;;4840036;29;20398;-84
2021/12/02 03:50:32;;;;;;;11.93;6.28;;;-4.60;99.90;;;;;;4832567;29;20426;-84
2021/12/02 03:53:00;;;;;;;12.73;6.28;;;-4.60;99.90;;;;;;4837688;29;20404;-84
2021/12/02 03:55:28;;;;;;;10.27;5.85;;;-4.60;99.90;;;;;;4821797;29;20487;-84
2021/12/02 03:57:55;;;;;;;12.40;5.70;;;-4.60;99.90;;;;;;4839661;29;20421;-84
2021/12/02 04:00:23;;;;;;;13.48;6.75;;;-4.60;99.90;;;;;;4839808;29;20420;-84
2021/12/02 04:02:53;;;;;;;11.73;5.65;;;-4.50;99.90;;;;;;4840357;29;20418;-84
2021/12/02 04:05:21;;;;;;;13.30;5.20;;;-4.50;99.90;;;;;;4839788;29;20411;-84
2021/12/02 04:07:48;;;;;;;11.88;4.78;;;-4.60;99.90;;;;;;4824659;29;20415;-84
2021/12/02 04:10:16;;;;;;;11.53;4.97;;;-4.60;99.90;;;;;;4839542;29;20414;-84
2021/12/02 04:13:23;;;;;;;12.38;5.43;;;-4.60;99.90;;;;;;4839420;29;20510;-84
2021/12/02 04:15:40;;;;;;;9.77;5.20;;;-4.60;99.90;;;;;;4837919;29;20427;-84
2021/12/02 04:18:08;;;;;;;12.82;5.97;;;-4.50;99.90;;;;;;4839839;29;20462;-83
2021/12/02 04:20:37;;;;;;;9.05;4.70;;;-4.50;99.90;;;;;;4824835;29;20920;-84
2021/12/02 04:23:05;;;;;;;9.68;5.03;;;-4.50;99.90;;;;;;4841765;29;20402;-84
2021/12/02 04:25:32;;;;;;;10.80;5.63;;;-4.50;99.90;;;;;;4843396;29;20480;-84
2021/12/02 04:28:00;;;;;;;10.57;5.68;;;-4.50;99.90;;;;;;4828038;29;20505;-83
2021/12/02 04:30:28;;;;;;;10.43;5.30;;;-4.40;99.90;;;;;;4843191;29;20905;-84
2021/12/02 04:32:56;;;;;;;10.98;4.90;;;-4.40;99.90;;;;;;4843317;29;20430;-84
2021/12/02 04:35:24;;;;;;;11.00;5.10;;;-4.40;99.90;;;;;;4843491;29;20414;-84
2021/12/02 04:37:52;;;;;;;10.02;4.75;;;-4.40;99.90;;;;;;4844299;29;20422;-84
2021/12/02 04:40:21;;;;;;;10.20;5.00;;;-4.40;99.90;;;;;;4844209;29;20893;-84
2021/12/02 04:42:49;;;;;;;10.50;5.00;;;-4.40;99.90;;;;;;4844332;29;20501;-84
2021/12/02 04:45:17;;;;;;;9.70;5.05;;;-4.40;99.90;;;;;;4842438;29;20839;-84
2021/12/02 04:47:44;;;;;;;10.88;4.50;;;-4.40;99.90;;;;;;4843008;29;20580;-84
2021/12/02 04:50:12;;;;;;;10.50;4.57;;;-4.40;99.90;;;;;;4858390;29;20739;-84
2021/12/02 04:52:39;;;;;;;9.13;4.60;;;-4.40;99.90;;;;;;4844097;29;20410;-84
2021/12/02 04:55:08;;;;;;;9.77;4.88;;;-4.30;99.90;;;;;;4857959;29;20412;-84
2021/12/02 04:57:36;;;;;;;8.68;4.25;;;-4.30;99.90;;;;;;4843887;29;20510;-84
2021/12/02 05:00:05;;;;;;;9.60;5.10;;;-4.30;99.90;;;;;;4842635;29;20417;-85
2021/12/02 05:02:33;;;;;;;9.05;4.78;;;-4.30;99.90;;;;;;4822664;29;20410;-84
2021/12/02 05:05:01;;;;;;;9.80;4.77;;;-4.30;99.90;;;;;;4834483;29;20510;-85
2021/12/02 05:07:29;;;;;;;8.73;4.45;;;-4.30;99.90;;;;;;4833035;29;20428;-84
2021/12/02 05:09:56;;;;;;;11.27;5.80;;;-4.30;99.90;;;;;;4824420;29;20419;-85
2021/12/02 05:12:24;;;;;;;8.10;4.50;;;-4.30;99.90;;;;;;4839554;29;20426;-84
2021/12/02 05:14:51;;;;;;;10.68;5.28;;;-4.30;99.90;;;;;;4843708;29;20486;-84
2021/12/02 05:17:19;;;;;;;10.25;5.47;;;-4.30;99.90;;;;;;4842196;29;20430;-85
2021/12/02 05:19:46;;;;;;;9.65;5.03;;;-4.30;99.90;;;;;;4842507;29;20402;-84
2021/12/02 05:22:14;;;;;;;9.75;5.63;;;-4.30;99.90;;;;;;4842441;29;20456;-84
2021/12/02 05:24:42;;;;;;;10.83;5.40;;;-4.20;99.90;;;;;;4842168;29;20410;-84
2021/12/02 05:27:12;;;;;;;10.38;5.35;;;-4.20;99.90;;;;;;4828672;29;20437;-84
2021/12/02 05:29:40;;;;;;;10.90;5.30;;;-4.20;99.90;;;;;;4842300;29;20410;-83
2021/12/02 05:32:07;;;;;;;12.38;5.85;;;-4.20;99.90;;;;;;4842494;29;20789;-84
2021/12/02 05:34:35;;;;;;;7.50;3.80;;;-4.20;99.90;;;;;;4841951;29;20413;-84
2021/12/02 05:37:03;;;;;;;10.15;5.15;;;-4.20;99.90;;;;;;4843396;29;20901;-85
2021/12/02 05:39:30;;;;;;;8.05;3.97;;;-4.20;99.90;;;;;;4843155;29;20403;-84
2021/12/02 05:41:58;;;;;;;9.15;4.65;;;-4.20;99.90;;;;;;4819074;29;20837;-85
2021/12/02 05:44:25;;;;;;;12.45;5.20;;;-4.20;99.90;;;;;;4826907;29;20435;-82
2021/12/02 05:46:53;;;;;;;7.55;3.78;;;-4.10;99.90;;;;;;4823654;29;20420;-83
2021/12/02 05:49:21;;;;;;;9.05;3.90;;;-4.20;99.90;;;;;;4823674;29;20416;-86
2021/12/02 05:51:49;;;;;;;10.55;4.60;;;-4.20;99.90;;;;;;4822153;29;20459;-84
2021/12/02 05:54:16;;;;;;;10.88;4.63;;;-4.20;99.90;;;;;;4843143;29;20898;-85
2021/12/02 05:56:44;;;;;;;10.73;4.73;;;-4.20;99.90;;;;;;4826729;29;20513;-84
2021/12/02 05:59:12;;;;;;;10.40;5.00;;;-4.10;99.90;;;;;;4826745;29;20411;-85
2021/12/02 06:01:42;;;;;;;9.15;4.82;;;-4.10;99.90;;;;;;4841896;29;20406;-85
2021/12/02 06:04:11;;;;;;;8.70;3.95;;;-4.20;99.90;;;;;;4841210;29;20425;-85
2021/12/02 06:06:40;;;;;;;9.15;4.63;;;-4.20;99.90;;;;;;4841622;29;20430;-84
2021/12/02 06:09:08;;;;;;;9.05;4.13;;;-4.10;99.90;;;;;;4838568;29;20408;-85
2021/12/02 06:11:40;;;;;;;8.15;3.65;;;-4.10;99.90;;;;;;4831525;29;20894;-85
2021/12/02 06:14:08;;;;;;;8.88;3.90;;;-4.10;99.90;;;;;;4823232;29;20480;-86
2021/12/02 06:16:35;;;;;;;9.03;4.47;;;-4.20;99.90;;;;;;4823354;29;20430;-85
2021/12/02 06:19:03;;;;;;;9.85;4.10;;;-4.10;99.90;;;;;;4824293;29;20838;-85
2021/12/02 06:21:35;;;;;;;9.00;4.03;;;-4.00;99.90;;;;;;4823531;29;20404;-84
2021/12/02 06:24:05;;;;;;;7.72;4.00;;;-4.10;99.90;;;;;;4824192;29;20404;-85
2021/12/02 06:26:33;;;;;;;8.68;4.57;;;-4.00;99.90;;;;;;4808368;29;20440;-85
2021/12/02 06:29:00;;;;;;;8.63;4.15;;;-4.00;99.90;;;;;;4823137;29;20510;-85
2021/12/02 06:31:28;;;;;;;8.17;3.97;;;-4.00;99.90;;;;;;4823067;29;20420;-85
2021/12/02 06:33:56;;;;;;;8.18;4.05;;;-4.10;99.90;;;;;;4823031;29;20415;-84
2021/12/02 06:36:24;;;;;;;8.15;3.85;;;-4.10;99.90;;;;;;4824332;29;20416;-84
2021/12/02 06:38:59;;;;;;;10.67;4.50;;;-4.10;99.90;;;;;;4822961;29;20412;-85
2021/12/02 06:41:27;;;;;;;8.63;4.10;;;-4.10;99.90;;;;;;4822940;29;20408;-85
2021/12/02 06:43:54;;;;;;;9.98;4.63;;;-4.20;99.90;;;;;;4823114;29;20412;-86
2021/12/02 06:46:22;;;;;;;7.30;3.78;;;-4.10;99.90;;;;;;4822428;29;20408;-85
2021/12/02 06:48:50;;;;;;;7.85;3.97;;;-4.10;99.90;;;;;;4823927;29;20404;-85
2021/12/02 06:51:19;;;;;;;8.20;4.23;;;-4.00;99.90;;;;;;4822924;29;20733;-85
2021/12/02 06:53:49;;;;;;;9.00;3.97;;;-4.00;99.90;;;;;;4822657;29;20422;-85
2021/12/02 06:56:16;;;;;;;8.38;3.40;;;-4.00;99.90;;;;;;4823883;29;20411;-85
2021/12/02 06:58:44;;;;;;;8.95;4.32;;;-4.00;99.90;;;;;;4822648;29;20412;-85
2021/12/02 07:01:13;;;;;;;7.25;4.25;;;-3.90;99.90;;;;;;4822517;29;20480;-85
2021/12/02 07:03:41;;;;;;;7.25;3.83;;;-4.00;99.90;;;;;;4822483;29;20902;-85
2021/12/02 07:06:08;;;;;;;8.40;3.97;;;-4.10;99.90;;;;;;4807365;29;20404;-86
2021/12/02 07:08:36;;;;;;;10.18;4.57;;;-4.10;99.90;;;;;;4822364;29;20431;-85
2021/12/02 07:11:06;;;;;;;7.57;3.67;;;-4.00;99.90;;;;;;4822662;29;20415;-85
2021/12/02 07:13:36;;;;;;;6.32;3.42;;;-4.10;99.90;;;;;;4823423;29;20929;-84
2021/12/02 07:16:04;;;;;;;8.43;4.05;;;-4.10;99.90;;;;;;4836202;29;20412;-85
2021/12/02 07:18:37;;;;;;;11.75;5.47;;;-4.10;99.90;;;;;;4846810;29;20530;-85
2021/12/02 07:21:05;;;;;;;9.77;4.03;;;-4.00;99.90;;;;;;4826258;29;20408;-85
2021/12/02 07:23:32;;;;;;;7.57;3.72;;;-4.00;99.90;;;;;;4835351;29;20416;-85
2021/12/02 07:26:00;;;;;;;8.88;4.10;;;-4.00;99.90;;;;;;4833065;29;20413;-85
2021/12/02 07:28:28;;;;;;;7.57;3.90;;;-3.90;99.90;;;;;;4841928;29;20441;-85
2021/12/02 07:30:56;;;;;;;7.22;3.80;;;-4.00;99.90;;;;;;4839842;29;20503;-85
2021/12/02 07:33:28;;;;;;;7.95;4.05;;;-4.00;99.90;;;;;;4829095;29;20412;-85
2021/12/02 07:35:56;;;;;;;8.75;4.20;;;-3.90;99.90;;;;;;4831087;29;20601;-85
2021/12/02 07:38:25;;;;;;;8.38;3.70;;;-3.90;99.90;;;;;;4839917;29;20982;-85
2021/12/02 07:40:52;;;;;;;7.32;4.20;;;-4.00;99.90;;;;;;4822152;29;20412;-85
2021/12/02 07:43:21;;;;;;;8.55;4.65;;;-4.00;99.90;;;;;;4829008;29;20414;-85
2021/12/02 07:45:50;;;;;;;6.97;3.63;;;-3.90;99.90;;;;;;4840297;29;20402;-85
2021/12/02 07:48:18;;;;;;;7.72;3.97;;;-4.00;99.90;;;;;;4841282;29;20417;-86
2021/12/02 07:50:46;;;;;;;6.50;3.67;;;-4.00;99.90;;;;;;4824986;29;20414;-84
2021/12/02 07:53:14;;;;;;;8.95;4.65;;;-4.00;99.90;;;;;;4840074;29;20811;-84
2021/12/02 07:55:43;;;;;;;9.38;4.05;;;-4.00;99.90;;;;;;4825056;29;20418;-85
2021/12/02 07:58:11;;;;;;;8.20;4.20;;;-4.00;99.90;;;;;;4824756;29;20438;-85
2021/12/02 08:00:42;;;;;;;7.55;3.92;;;-4.00;99.90;;;;;;4825295;29;20410;-85
2021/12/02 08:03:12;;;;;;;8.80;4.97;;;-4.00;99.90;;;;;;4840129;29;20486;-85
2021/12/02 08:05:40;;;;;;;7.20;4.13;;;-3.90;99.90;;;;;;4824962;29;20402;-85
2021/12/02 08:08:09;;;;;;;7.78;3.85;;;-3.90;99.90;;;;;;4839702;29;20914;-84
2021/12/02 08:10:37;;;;;;;7.68;4.20;;;-3.90;99.90;;;;;;4839692;29;20407;-85
2021/12/02 08:13:05;;;;;;;7.80;4.45;;;-3.90;99.90;;;;;;4839909;29;20509;-85
2021/12/02 08:15:33;;;;;;;6.85;3.70;;;-3.90;99.90;;;;;;4839763;29;20416;-85
2021/12/02 08:18:01;;;;;;;8.38;4.50;;;-3.80;99.90;;;;;;4824748;29;20430;-86
2021/12/02 08:20:32;;;;;;;9.10;4.25;;;-3.90;99.90;;;;;;4839249;29;20463;-85
2021/12/02 08:23:00;;;;;;;8.30;4.57;;;-3.90;99.90;;;;;;4839922;29;20803;-85
2021/12/02 08:25:29;;;;;;;7.43;3.90;;;-3.90;99.90;;;;;;4839641;29;20812;-84
2021/12/02 08:27:59;;;;;;;7.45;4.13;;;-3.90;99.90;;;;;;4839734;29;20522;-85
2021/12/02 08:30:29;;;;;;;7.45;3.83;;;-3.80;99.90;;;;;;4839742;29;20406;-85
2021/12/02 08:32:58;;;;;;;7.38;3.85;;;-3.90;99.90;;;;;;4839850;29;20890;-85
2021/12/02 08:35:26;;;;;;;8.18;3.85;;;-3.80;99.90;;;;;;4824614;29;20402;-85
2021/12/02 08:38:00;;;;;;;8.32;4.28;;;-3.80;99.90;;;;;;4839514;29;20430;-85
2021/12/02 08:40:36;;;;;;;7.57;3.90;;;-3.90;99.90;;;;;;4839462;29;20479;-85
2021/12/02 08:43:06;;;;;;;6.60;4.03;;;-3.90;99.90;;;;;;4839357;29;20439;-84
2021/12/02 08:45:35;;;;;;;8.55;4.53;;;-3.80;99.90;;;;;;4824139;29;20479;-84
2021/12/02 08:48:03;;;;;;;8.18;4.10;;;-3.80;99.90;;;;;;4821257;29;20993;-85
2021/12/02 08:50:32;;;;;;;7.55;3.60;;;-3.80;99.90;;;;;;4821208;29;20768;-85
2021/12/02 08:53:01;;;;;;;7.53;4.22;;;-3.80;99.90;;;;;;4822382;29;20446;-85
2021/12/02 08:55:31;;;;;;;10.52;4.88;;;-3.80;99.90;;;;;;4822016;29;20494;-85
2021/12/02 08:58:00;;;;;;;8.55;3.80;;;-3.70;99.90;;;;;;4836045;29;20852;-84
2021/12/02 09:00:35;;;;;;;8.75;3.92;;;-3.70;99.90;;;;;;4821143;29;20918;-85
2021/12/02 09:03:05;;;;;;;7.47;4.13;;;-3.70;99.90;;;;;;4821348;29;20506;-85
2021/12/02 09:05:33;;;;;;;8.75;4.47;;;-3.70;99.90;;;;;;4821051;29;20416;-85
2021/12/02 09:08:01;;;;;;;7.72;4.03;;;-3.60;99.90;;;;;;4806244;29;20991;-85
2021/12/02 09:10:29;;;;;;;10.20;4.47;;;-3.60;99.90;;;;;;4824611;29;20417;-84
2021/12/02 09:12:57;;;;;;;6.53;3.70;;;-3.60;99.90;;;;;;4839416;29;20420;-85
2021/12/02 09:15:25;;;;;;;8.55;4.43;;;-3.50;99.90;;;;;;4809465;29;20524;-85
2021/12/02 09:17:55;;;;;;;7.57;3.70;;;-3.50;99.90;;;;;;4824495;29;20915;-85
2021/12/02 09:20:23;;;;;;;7.15;3.95;;;-3.50;99.90;;;;;;4825204;29;20400;-85
2021/12/02 09:22:50;;;;;;;8.50;4.35;;;-3.50;99.90;;;;;;4824167;29;20461;-85
2021/12/02 09:25:18;;;;;;;8.20;4.03;;;-3.50;99.90;;;;;;4839418;29;20396;-85
2021/12/02 09:27:46;;;;;;;6.90;3.30;;;-3.60;99.90;;;;;;4823811;29;20443;-84
2021/12/02 09:30:16;;;;;;;8.23;4.43;;;-3.60;99.90;;;;;;4825123;29;20420;-85
2021/12/02 09:32:44;;;;;;;7.93;4.10;;;-3.50;99.90;;;;;;4837785;29;20931;-85
2021/12/02 09:35:12;;;;;;;6.97;3.53;;;-3.40;99.90;;;;;;4823765;29;20424;-85
2021/12/02 09:37:40;;;;;;;9.05;4.00;;;-3.50;99.90;;;;;;4824694;29;20423;-84
2021/12/02 09:40:13;;;;;;;8.20;4.40;;;-3.50;99.90;;;;;;4819422;29;20421;-84
2021/12/02 09:42:41;;;;;;;7.25;3.85;;;-3.50;99.90;;;;;;4832295;29;20412;-84
2021/12/02 09:45:09;;;;;;;6.40;3.45;;;-3.50;99.90;;;;;;4829873;29;20414;-84
2021/12/02 09:47:42;;;;;;;7.22;3.70;;;-3.40;99.90;;;;;;4835560;29;20414;-84
2021/12/02 09:50:30;;;;;;;6.43;3.45;;;-3.50;99.90;;;;;;4841740;29;20529;-83
2021/12/02 09:53:07;;;;;;;8.03;3.83;;;-3.50;99.90;;;;;;4842032;29;20470;-83
2021/12/02 09:55:49;;;;;;;7.13;3.72;;;-3.50;99.90;;;;;;4842886;29;20413;-83
2021/12/02 09:58:23;;;;;;;6.60;3.72;;;-3.50;99.90;;;;;;4841862;29;20914;-84
2021/12/02 10:01:12;;;;;;;7.30;3.67;;;-3.50;99.90;;;;;;4841720;29;20962;-84
2021/12/02 10:03:43;;;;;;;7.65;3.90;;;-3.40;99.90;;;;;;4824910;29;20737;-84
2021/12/02 10:06:19;;;;;;;7.20;3.83;;;-3.40;99.90;;;;;;4823327;29;20428;-84
2021/12/02 10:09:05;;;;;;;7.57;3.53;;;-3.50;99.90;;;;;;4823382;29;20456;-84
2021/12/02 10:11:55;;;;;;;8.25;4.10;;;-3.40;99.90;;;;;;4823150;29;20476;-84
2021/12/02 10:14:28;;;;;;;6.88;3.63;;;-3.40;99.90;;;;;;4824191;29;20922;-84
2021/12/02 10:17:07;;;;;;;6.63;3.28;;;-3.40;99.90;;;;;;4823197;29;20486;-84
2021/12/02 10:19:35;;;;;;;7.70;4.10;;;-3.40;99.90;;;;;;4833819;29;20522;-84
2021/12/02 10:24:30;;;;;;;7.32;3.75;;;-3.40;99.90;;;;;;4856756;29;20411;-85
2021/12/02 10:27:05;;;;;;;8.53;3.80;;;-3.40;99.90;;;;;;4834603;29;20503;-85
2021/12/02 10:29:47;;;;;;;6.53;3.33;;;-3.40;99.90;;;;;;4839107;29;20509;-83
2021/12/02 10:32:25;;;;;;;6.38;3.63;;;-3.40;99.90;;;;;;4833810;29;20515;-84
2021/12/02 10:35:05;;;;;;;7.00;3.35;;;-3.40;99.90;;;;;;4836125;29;20467;-83
2021/12/02 10:37:35;;;;;;;6.65;3.65;;;-3.40;99.90;;;;;;4840883;29;20457;-84
2021/12/02 10:40:19;;;;;;;6.45;3.55;;;-3.40;99.90;;;;;;4824606;29;20415;-84
2021/12/02 10:42:48;;;;;;;7.40;3.93;;;-3.40;99.90;;;;;;4840807;29;20410;-83
2021/12/02 10:45:20;;;;;;;6.68;3.50;;;-3.30;99.90;;;;;;4840928;29;20459;-84
2021/12/02 10:47:53;;;;;;;8.23;4.15;;;-3.40;99.90;;;;;;4834696;29;20432;-83
2021/12/02 10:50:23;;;;;;;7.55;3.70;;;-3.30;99.90;;;;;;4831725;29;20406;-83
2021/12/02 10:52:51;;;;;;;7.32;3.63;;;-3.20;99.90;;;;;;4832208;29;20414;-83
2021/12/02 10:55:22;;;;;;;7.53;3.42;;;-3.30;99.90;;;;;;4832386;29;20452;-83
2021/12/02 10:57:58;;;;;;;5.95;3.42;;;-3.30;99.90;;;;;;4827218;29;20519;-84
2021/12/02 11:00:29;;;;;;;5.75;3.03;;;-3.30;99.90;;;;;;4822912;29;20404;-84
2021/12/02 11:03:06;;;;;;;6.30;3.33;;;-3.30;99.90;;;;;;4822552;29;20495;-84
2021/12/02 11:05:36;;;;;;;7.38;3.60;;;-3.30;99.90;;;;;;4822379;29;20458;-84
2021/12/02 11:08:06;;;;;;;5.88;3.35;;;-3.30;99.90;;;;;;4822653;29;20412;-85
2021/12/02 11:10:46;;;;;;;7.95;3.63;;;-3.30;99.90;;;;;;4822325;29;20443;-85
2021/12/02 11:13:22;;;;;;;5.88;3.25;;;-3.30;99.90;;;;;;4823501;29;20505;-84
2021/12/02 11:15:52;;;;;;;6.00;3.42;;;-3.30;99.90;;;;;;4822548;29;20909;-84
2021/12/02 11:18:22;;;;;;;6.65;3.55;;;-3.20;99.90;;;;;;4821671;29;20511;-85
2021/12/02 11:20:57;;;;;;;7.67;4.10;;;-3.20;99.90;;;;;;4822330;29;20460;-84
2021/12/02 11:23:36;;;;;;;8.07;4.15;;;-3.10;99.90;;;;;;4822147;29;20680;-84
2021/12/02 11:26:16;;;;;;;6.47;3.70;;;-3.10;99.90;;;;;;4822566;29;20444;-85
2021/12/02 11:28:43;;;;;;;7.65;3.85;;;-3.10;99.90;;;;;;4822738;29;20770;-85
2021/12/02 11:31:20;;;;;;;9.35;4.30;;;-3.20;99.90;;;;;;4821642;29;20436;-85
2021/12/02 11:33:49;;;;;;;6.78;3.85;;;-3.20;99.90;;;;;;4807131;29;20415;-84
2021/12/02 11:36:30;;;;;;;7.75;4.10;;;-3.20;99.90;;;;;;4823250;29;20400;-85
2021/12/02 11:38:59;;;;;;;7.05;3.88;;;-3.10;99.90;;;;;;4823058;29;20792;-84
2021/12/02 11:41:27;;;;;;;7.47;4.35;;;-3.10;99.90;;;;;;4822242;29;20464;-83
2021/12/02 11:43:56;;;;;;;7.07;3.88;;;-3.00;99.90;;;;;;4822934;29;20469;-83
2021/12/02 11:46:23;;;;;;;7.55;3.95;;;-3.10;99.90;;;;;;4821951;29;20764;-84
2021/12/02 11:48:52;;;;;;;8.38;3.90;;;-3.00;99.90;;;;;;4821930;29;20904;-85
2021/12/02 11:51:22;;;;;;;7.38;3.60;;;-3.10;99.90;;;;;;4823066;29;20404;-85
2021/12/02 11:53:50;;;;;;;7.05;3.97;;;-3.00;99.90;;;;;;4823400;29;20426;-85
2021/12/02 11:56:23;;;;;;;7.65;4.10;;;-3.00;99.90;;;;;;4822057;29;20422;-84
2021/12/02 11:58:54;;;;;;;8.40;4.10;;;-3.00;99.90;;;;;;4821723;29;20768;-85
2021/12/02 12:01:25;;;;;;;8.52;4.13;;;-2.90;99.90;;;;;;4822036;29;20903;-83
2021/12/02 12:04:10;;;;;;;6.68;3.83;;;-2.90;99.90;;;;;;4822833;29;20904;-85
2021/12/02 12:06:41;;;;;;;7.55;4.18;;;-3.00;99.90;;;;;;4821946;29;20410;-84
2021/12/02 12:09:16;;;;;;;129.05;81.53;;;-3.00;99.90;;;;;;4821740;29;20455;-84
2021/12/02 12:11:52;;;;;;;88.68;75.28;;;-3.00;99.90;;;;;;4821660;29;20416;-84
2021/12/02 12:14:34;;;;;;;21.00;18.85;;;-3.00;99.90;;;;;;4826051;29;20953;-84
2021/12/02 12:17:10;;;;;;;21.98;19.67;;;-2.90;99.90;;;;;;4840966;29;20448;-84
2021/12/02 12:19:41;;;;;;;15.05;13.35;;;-2.90;99.90;;;;;;4840644;29;20422;-84
2021/12/02 12:22:22;;;;;;;11.85;8.93;;;-3.00;99.90;;;;;;4839828;29;20441;-85
2021/12/02 12:24:53;;;;;;;8.13;5.07;;;-3.00;99.90;;;;;;4836534;29;20495;-85
2021/12/02 12:27:32;;;;;;;25.25;21.75;;;-3.00;99.90;;;;;;4821403;29;20930;-85
2021/12/02 12:30:20;;;;;;;9.40;6.13;;;-2.90;99.90;;;;;;4821292;29;20836;-84
2021/12/02 12:33:07;;;;;;;10.35;6.90;;;-3.00;99.90;;;;;;4852617;29;20970;-84
2021/12/02 12:38:26;;;;;;;9.57;6.00;;;-3.00;99.90;;;;;;4839273;29;20532;-85
2021/12/02 12:41:18;;;;;;;11.07;8.03;;;-3.00;99.90;;;;;;4839499;29;20436;-84
2021/12/02 12:43:50;;;;;;;10.38;7.13;;;-2.90;99.90;;;;;;4840757;29;20406;-84
2021/12/02 12:46:22;;;;;;;19.55;17.65;;;-2.90;99.90;;;;;;4842967;29;20530;-84
2021/12/02 12:48:53;;;;;;;10.97;8.17;;;-2.90;99.90;;;;;;4842817;29;20425;-84
2021/12/02 12:51:29;;;;;;;8.27;5.40;;;-2.90;99.90;;;;;;4827797;29;20500;-84
2021/12/02 12:54:02;;;;;;;8.57;5.38;;;-2.80;99.90;;;;;;4843095;29;20429;-84
2021/12/02 12:56:39;;;;;;;8.65;6.55;;;-2.80;99.90;;;;;;4844040;29;20543;-83
2021/12/02 12:59:13;;;;;;;6.80;3.97;;;-2.80;99.90;;;;;;4842466;29;20486;-84
2021/12/02 13:01:57;;;;;;;8.40;4.97;;;-2.90;99.90;;;;;;4843942;29;20495;-84
2021/12/02 13:04:27;;;;;;;10.77;5.80;;;-2.90;99.90;;;;;;4842620;29;20414;-84
2021/12/02 13:07:16;;;;;;;11.93;6.13;;;-2.80;99.90;;;;;;4842706;29;20419;-83
2021/12/02 13:09:54;;;;;;;11.52;7.53;;;-2.80;99.90;;;;;;4836390;29;20896;-83
2021/12/02 13:12:48;;;;;;;9.40;6.50;;;-2.80;99.90;;;;;;4813148;29;20420;-84
2021/12/02 13:15:19;;;;;;;10.77;6.28;;;-2.70;99.90;;;;;;4842073;29;20421;-84